Storoen, Sweden

2:17 AM CEST on July 24, 2014 (GMT +0200)
INORRBOT5 Elev 56 ft | 65.80 °N, 23.30 °E | Change Station

Current weather conditions updated 29 seconds ago

Clear
Clear
70.5 °F
Feels Like 70 °F
N
8.9
Wind Variable Wind from North

Today is forecast to be Much Cooler than yesterday.

Today
High -- | Low -- °F
--% Chance of Precip.
Yesterday
High -- | Low -- °F
Precip. -- in
2:45 AM 10:19 PM
Waning Crescent, 8% visible
Pressure 30.21 in
Visibility 6.2 miles
Clouds
Heat Index 70 °F
Dew Point 65 °F
Humidity 82%
Rainfall -999.00 in
Snow Depth Not available.
UV Not available.
Pollen Not available.
Air Quality Not available.
Flu Activity Not available.
METAR ESPA 232350Z AUTO 35004KT 9999NDV NCD 18/15 Q1023

More Conditions Fewer Conditions

Pressure 30.21 in
Visibility 6.2 miles
Clouds
Heat Index 70 °F
Dew Point 65 °F
Humidity 82%
Rainfall -999.00 in
Snow Depth Not available.
UV Not available.
Pollen Not available.
Air Quality Not available.
Flu Activity Not available.
METAR ESPA 232350Z AUTO 35004KT 9999NDV NCD 18/15 Q1023

More Conditions Fewer Conditions

10-Day Weather Forecast

Almanac

Astronomy

Jul. 24, 2014 Rise Set
Actual Time 2:45 AM CEST 10:19 PM CEST
Civil Twilight 1:06 AM CEST 12:01 AM CEST
Nautical Twilight Sun does not rise Sun does not rise
Astronomical Twilight Sun does not rise Sun does not rise
Moon 12:56 AM CEST 7:58 PM CEST
Length of Visible Light 22h 55m
Length of Day
19h 33m
Tomorrow will be 7m 44s shorter.
Waning Crescent, 8% of the Moon is Illuminated
Jul 23
Waning Crescent
Jul 26
New
Aug 3
First Quarter
Aug 10
Full
Aug 17
Last Quarter

Yesterday's Extremes

Country Highs Country Lows

Community

WunderPhotos

Upload Photos

1,736,826 photos uploaded!

Nearby

Snow Depth

Not available.

Earthquake Activity

City Distance Mag. Time & Date
No recent earthquake activity has been reported nearby.
Minimum magnitude displayed is 2.5.

Coastal Water Temperatures

Place Temperature
No Stations Reporting

Nearby Weather Stations

Station Location Temp. Heat Index Dew Point Humidity Wind Precip. Elev Updated Type
Karlsborg 70.5 °F 70 °F 65 °F 82% North  at  8.9 mph - / hr 56 ft 2:16 AM CEST Normal
Palang, Puling 66.0 °F - - - NNE  at  0.0 mph - / hr 10 ft 2:13 AM CEST Normal
Valhallav. Kalix, Kalix 70.5 °F 70 °F 65 °F 82% North  at  4.6 mph 0.00 in / hr 174 ft 2:17 AM CEST Rapid Fire
Kalix 64.1 °F - - - ESE  at  1.8 mph - / hr 197 ft 2:10 AM CEST Normal

Show More Stations Show Fewer Stations